sensor_id;sensor_type;location;lat;lon;timestamp;pressure;altitude;pressure_sealevel;temperature;humidity
61554;BME280;47425;51.976;5.326;2022-11-04T09:02:40;100493.09;;;17.74;58.59
61554;BME280;47425;51.976;5.326;2022-11-04T09:05:06;100502.78;;;18.22;57.66
61554;BME280;47425;51.976;5.326;2022-11-04T09:07:31;100505.41;;;18.68;56.43
61554;BME280;47425;51.976;5.326;2022-11-04T09:09:57;100500.44;;;19.07;55.99
61554;BME280;47425;51.976;5.326;2022-11-04T09:12:22;100517.19;;;19.36;54.94
61554;BME280;47425;51.976;5.326;2022-11-04T09:14:48;100520.22;;;19.59;54.02
61554;BME280;47425;51.976;5.326;2022-11-04T09:17:13;100518.94;;;19.79;54.04
61554;BME280;47425;51.976;5.326;2022-11-04T09:19:40;100526.81;;;19.95;53.21
61554;BME280;47425;51.976;5.326;2022-11-04T09:22:06;100531.25;;;20.09;53.09
61554;BME280;47425;51.976;5.326;2022-11-04T09:24:31;100541.06;;;20.21;52.54
61554;BME280;47425;51.976;5.326;2022-11-04T09:26:56;100546.63;;;20.31;52.22
61554;BME280;47425;51.976;5.326;2022-11-04T09:29:22;100547.91;;;20.38;52.36
61554;BME280;47425;51.976;5.326;2022-11-04T09:31:47;100558.16;;;20.44;51.85
61554;BME280;47425;51.976;5.326;2022-11-04T09:34:14;100555.16;;;20.49;51.66
61554;BME280;47425;51.976;5.326;2022-11-04T09:37:02;100567.34;;;20.53;51.68
61554;BME280;47425;51.976;5.326;2022-11-04T09:39:27;100564.47;;;20.56;51.79
61554;BME280;47425;51.976;5.326;2022-11-04T09:46:52;100569.28;;;20.64;51.18
61554;BME280;47425;51.976;5.326;2022-11-04T09:49:20;100569.06;;;20.67;51.29
61554;BME280;47425;51.976;5.326;2022-11-04T09:51:47;100570.59;;;20.71;50.94
61554;BME280;47425;51.976;5.326;2022-11-04T09:56:49;100576.34;;;20.78;50.91
61554;BME280;47425;51.976;5.326;2022-11-04T09:59:20;100577.19;;;20.78;51.11
61554;BME280;47425;51.976;5.326;2022-11-04T10:02:00;100587.00;;;20.78;50.75
61554;BME280;47425;51.976;5.326;2022-11-04T10:04:57;100586.16;;;20.77;50.86
61554;BME280;47425;51.976;5.326;2022-11-04T10:07:40;100588.16;;;20.74;50.40
61554;BME280;47425;51.976;5.326;2022-11-04T10:10:27;100590.06;;;20.72;50.68
61554;BME280;47425;51.976;5.326;2022-11-04T10:21:59;100602.97;;;20.78;50.46
61554;BME280;47425;51.976;5.326;2022-11-04T10:24:44;100593.91;;;20.81;50.74
61554;BME280;47425;51.976;5.326;2022-11-04T10:27:29;100590.81;;;20.87;50.51
61554;BME280;47425;51.976;5.326;2022-11-04T10:30:01;100599.34;;;20.92;50.28
61554;BME280;47425;51.976;5.326;2022-11-04T10:32:34;100600.22;;;20.92;50.38
61554;BME280;47425;51.976;5.326;2022-11-04T10:35:35;100603.50;;;20.96;50.54
61554;BME280;47425;51.976;5.326;2022-11-04T10:38:20;100601.72;;;20.97;50.50
61554;BME280;47425;51.976;5.326;2022-11-04T10:40:51;100607.66;;;21.00;49.83
61554;BME280;47425;51.976;5.326;2022-11-04T10:43:35;100614.81;;;21.00;50.11
61554;BME280;47425;51.976;5.326;2022-11-04T10:46:25;100617.38;;;21.01;50.17
61554;BME280;47425;51.976;5.326;2022-11-04T10:52:00;100622.50;;;21.04;50.04
61554;BME280;47425;51.976;5.326;2022-11-04T10:54:26;100631.56;;;21.02;49.68
61554;BME280;47425;51.976;5.326;2022-11-04T10:56:55;100635.91;;;21.03;50.15
61554;BME280;47425;51.976;5.326;2022-11-04T11:02:06;100642.09;;;21.03;49.81
61554;BME280;47425;51.976;5.326;2022-11-04T11:04:35;100645.59;;;21.04;50.17
61554;BME280;47425;51.976;5.326;2022-11-04T11:07:07;100659.78;;;21.04;49.84
61554;BME280;47425;51.976;5.326;2022-11-04T11:09:35;100662.44;;;21.04;50.07
61554;BME280;47425;51.976;5.326;2022-11-04T11:12:05;100658.06;;;21.03;49.85
61554;BME280;47425;51.976;5.326;2022-11-04T11:14:43;100655.28;;;21.05;50.45
61554;BME280;47425;51.976;5.326;2022-11-04T11:17:58;100658.78;;;21.05;50.19
61554;BME280;47425;51.976;5.326;2022-11-04T11:22:42;100656.47;;;21.13;50.43
61554;BME280;47425;51.976;5.326;2022-11-04T11:25:28;100655.41;;;21.16;50.49
61554;BME280;47425;51.976;5.326;2022-11-04T11:28:04;100651.78;;;21.17;50.74
61554;BME280;47425;51.976;5.326;2022-11-04T11:33:05;100653.50;;;21.18;50.40
61554;BME280;47425;51.976;5.326;2022-11-04T11:35:41;100651.78;;;21.17;50.68
61554;BME280;47425;51.976;5.326;2022-11-04T11:38:27;100647.31;;;21.18;50.50
61554;BME280;47425;51.976;5.326;2022-11-04T11:41:11;100649.97;;;21.18;50.56
61554;BME280;47425;51.976;5.326;2022-11-04T11:43:44;100654.56;;;21.16;50.51
61554;BME280;47425;51.976;5.326;2022-11-04T11:46:12;100655.28;;;21.18;50.19
61554;BME280;47425;51.976;5.326;2022-11-04T11:48:40;100662.44;;;21.17;50.35
61554;BME280;47425;51.976;5.326;2022-11-04T11:51:13;100671.28;;;21.18;50.27
61554;BME280;47425;51.976;5.326;2022-11-04T11:53:59;100673.00;;;21.19;50.29
61554;BME280;47425;51.976;5.326;2022-11-04T11:56:37;100677.38;;;21.20;50.30
61554;BME280;47425;51.976;5.326;2022-11-04T12:02:34;100683.53;;;21.20;49.78
61554;BME280;47425;51.976;5.326;2022-11-04T12:04:40;100678.31;;;21.19;50.06
61554;BME280;47425;51.976;5.326;2022-11-04T12:10:00;100678.53;;;21.16;50.20
61554;BME280;47425;51.976;5.326;2022-11-04T12:12:51;100688.13;;;21.18;49.86
61554;BME280;47425;51.976;5.326;2022-11-04T12:23:39;100700.78;;;21.15;50.00
61554;BME280;47425;51.976;5.326;2022-11-04T12:26:58;100701.53;;;21.17;50.13
61554;BME280;47425;51.976;5.326;2022-11-04T12:29:59;100703.34;;;21.16;50.15
61554;BME280;47425;51.976;5.326;2022-11-04T12:38:38;100711.66;;;21.11;50.21
61554;BME280;47425;51.976;5.326;2022-11-04T12:49:39;100725.81;;;21.12;49.98
61554;BME280;47425;51.976;5.326;2022-11-04T12:52:34;100726.78;;;21.11;50.12
61554;BME280;47425;51.976;5.326;2022-11-04T12:58:19;100724.97;;;21.11;49.78
61554;BME280;47425;51.976;5.326;2022-11-04T13:00:55;100739.53;;;21.06;50.07
61554;BME280;47425;51.976;5.326;2022-11-04T13:03:29;100735.91;;;21.07;49.89
61554;BME280;47425;51.976;5.326;2022-11-04T13:06:05;100742.94;;;21.08;50.47
61554;BME280;47425;51.976;5.326;2022-11-04T13:11:25;100742.84;;;21.09;49.81
61554;BME280;47425;51.976;5.326;2022-11-04T13:16:43;100740.94;;;21.11;50.03
61554;BME280;47425;51.976;5.326;2022-11-04T13:19:22;100745.34;;;21.25;49.84
61554;BME280;47425;51.976;5.326;2022-11-04T13:21:48;100751.16;;;21.18;49.74
61554;BME280;47425;51.976;5.326;2022-11-04T13:24:17;100754.03;;;21.15;49.56
61554;BME280;47425;51.976;5.326;2022-11-04T13:26:46;100758.63;;;21.12;49.89
61554;BME280;47425;51.976;5.326;2022-11-04T13:29:14;100768.31;;;21.13;49.92
61554;BME280;47425;51.976;5.326;2022-11-04T13:31:51;100768.50;;;21.10;49.64
61554;BME280;47425;51.976;5.326;2022-11-04T13:34:39;100775.66;;;21.10;49.94
61554;BME280;47425;51.976;5.326;2022-11-04T13:37:25;100785.38;;;21.11;49.63
61554;BME280;47425;51.976;5.326;2022-11-04T13:39:57;100794.31;;;21.10;49.73
61554;BME280;47425;51.976;5.326;2022-11-04T13:45:49;100797.81;;;21.10;50.04
61554;BME280;47425;51.976;5.326;2022-11-04T13:48:25;100795.34;;;21.07;50.01
61554;BME280;47425;51.976;5.326;2022-11-04T13:51:03;100798.84;;;21.08;49.57
61554;BME280;47425;51.976;5.326;2022-11-04T13:53:49;100803.34;;;21.07;50.15
61554;BME280;47425;51.976;5.326;2022-11-04T13:56:35;100798.97;;;21.06;49.95
61554;BME280;47425;51.976;5.326;2022-11-04T14:04:42;100828.34;;;21.05;49.88
61554;BME280;47425;51.976;5.326;2022-11-04T14:07:11;100837.09;;;21.07;50.04
61554;BME280;47425;51.976;5.326;2022-11-04T14:14:42;100854.22;;;21.03;49.98
61554;BME280;47425;51.976;5.326;2022-11-04T14:20:26;100841.94;;;21.00;50.06
61554;BME280;47425;51.976;5.326;2022-11-04T14:22:57;100841.09;;;21.00;49.85
61554;BME280;47425;51.976;5.326;2022-11-04T14:25:29;100847.47;;;20.97;50.13
61554;BME280;47425;51.976;5.326;2022-11-04T14:27:59;100854.41;;;21.00;50.46
61554;BME280;47425;51.976;5.326;2022-11-04T14:30:35;100868.03;;;20.95;50.59
61554;BME280;47425;51.976;5.326;2022-11-04T14:33:15;100860.22;;;20.92;50.22
61554;BME280;47425;51.976;5.326;2022-11-04T14:35:43;100860.91;;;20.95;50.46
61554;BME280;47425;51.976;5.326;2022-11-04T14:38:29;100868.09;;;20.93;50.25
61554;BME280;47425;51.976;5.326;2022-11-04T14:43:52;100881.53;;;20.92;50.56
61554;BME280;47425;51.976;5.326;2022-11-04T14:46:21;100884.19;;;20.92;50.80
61554;BME280;47425;51.976;5.326;2022-11-04T14:48:51;100888.78;;;20.90;50.61
61554;BME280;47425;51.976;5.326;2022-11-04T14:51:42;100886.94;;;20.90;50.51
61554;BME280;47425;51.976;5.326;2022-11-04T14:54:20;100891.44;;;20.90;50.39
61554;BME280;47425;51.976;5.326;2022-11-04T14:56:47;100895.81;;;20.91;50.15
61554;BME280;47425;51.976;5.326;2022-11-04T14:59:21;100896.09;;;20.86;50.30
61554;BME280;47425;51.976;5.326;2022-11-04T15:01:48;100894.25;;;20.87;49.92
61554;BME280;47425;51.976;5.326;2022-11-04T15:04:25;100901.72;;;20.82;50.01
61554;BME280;47425;51.976;5.326;2022-11-04T15:07:00;100900.19;;;20.77;50.29
61554;BME280;47425;51.976;5.326;2022-11-04T15:09:39;100903.78;;;20.76;50.00
61554;BME280;47425;51.976;5.326;2022-11-04T15:15:34;100914.72;;;20.72;49.94
61554;BME280;47425;51.976;5.326;2022-11-04T15:18:07;100919.28;;;20.70;50.43
61554;BME280;47425;51.976;5.326;2022-11-04T15:20:39;100925.63;;;20.67;50.24
61554;BME280;47425;51.976;5.326;2022-11-04T15:23:12;100928.47;;;20.64;50.00
61554;BME280;47425;51.976;5.326;2022-11-04T15:26:06;100937.22;;;20.66;50.54
61554;BME280;47425;51.976;5.326;2022-11-04T15:28:38;100935.50;;;20.65;50.46
61554;BME280;47425;51.976;5.326;2022-11-04T15:33:46;100932.28;;;20.60;50.22
61554;BME280;47425;51.976;5.326;2022-11-04T15:36:25;100926.28;;;20.56;50.05
61554;BME280;47425;51.976;5.326;2022-11-04T15:39:09;100946.63;;;20.57;50.25
61554;BME280;47425;51.976;5.326;2022-11-04T15:41:39;100946.53;;;20.59;50.16
61554;BME280;47425;51.976;5.326;2022-11-04T15:44:27;100957.06;;;20.60;50.30
61554;BME280;47425;51.976;5.326;2022-11-04T15:46:56;100955.25;;;20.61;50.35
61554;BME280;47425;51.976;5.326;2022-11-04T15:49:27;100953.38;;;20.63;50.32
61554;BME280;47425;51.976;5.326;2022-11-04T15:51:57;100959.44;;;20.65;50.45
61554;BME280;47425;51.976;5.326;2022-11-04T15:54:30;100961.25;;;20.65;50.15
61554;BME280;47425;51.976;5.326;2022-11-04T15:57:02;100958.59;;;20.65;50.53
61554;BME280;47425;51.976;5.326;2022-11-04T15:59:34;100967.53;;;20.63;50.07
61554;BME280;47425;51.976;5.326;2022-11-04T16:02:03;100962.88;;;20.67;49.74
61554;BME280;47425;51.976;5.326;2022-11-04T16:04:31;100977.28;;;20.79;49.69
61554;BME280;47425;51.976;5.326;2022-11-04T16:07:24;100982.22;;;20.71;50.10
61554;BME280;47425;51.976;5.326;2022-11-04T16:09:54;100981.50;;;20.67;49.70
61554;BME280;47425;51.976;5.326;2022-11-04T16:14:49;100978.78;;;20.69;50.24
61554;BME280;47425;51.976;5.326;2022-11-04T16:17:17;100978.69;;;20.70;49.98
61554;BME280;47425;51.976;5.326;2022-11-04T16:19:48;100977.91;;;20.68;49.73
61554;BME280;47425;51.976;5.326;2022-11-04T16:22:23;100984.00;;;20.70;50.28
61554;BME280;47425;51.976;5.326;2022-11-04T16:24:51;100988.19;;;20.74;49.92
61554;BME280;47425;51.976;5.326;2022-11-04T16:27:21;100989.13;;;20.73;50.12
61554;BME280;47425;51.976;5.326;2022-11-04T16:30:05;101000.66;;;20.74;49.94
61554;BME280;47425;51.976;5.326;2022-11-04T16:32:45;101002.38;;;20.75;49.74
61554;BME280;47425;51.976;5.326;2022-11-04T16:35:23;101001.41;;;20.76;49.68
61554;BME280;47425;51.976;5.326;2022-11-04T16:37:51;101001.34;;;20.77;49.80
61554;BME280;47425;51.976;5.326;2022-11-04T16:40:18;101012.91;;;20.76;50.04
61554;BME280;47425;51.976;5.326;2022-11-04T16:42:44;101009.31;;;20.77;49.73
61554;BME280;47425;51.976;5.326;2022-11-04T16:45:25;101018.16;;;20.78;49.59
61554;BME280;47425;51.976;5.326;2022-11-04T16:47:53;101017.19;;;20.79;49.95
61554;BME280;47425;51.976;5.326;2022-11-04T16:50:18;101028.69;;;20.79;49.96
61554;BME280;47425;51.976;5.326;2022-11-04T16:52:44;101026.88;;;20.80;49.77
61554;BME280;47425;51.976;5.326;2022-11-04T16:55:12;101038.41;;;20.81;49.43
61554;BME280;47425;51.976;5.326;2022-11-04T16:57:38;101034.84;;;20.80;49.66
61554;BME280;47425;51.976;5.326;2022-11-04T17:00:04;101037.63;;;20.78;49.64
61554;BME280;47425;51.976;5.326;2022-11-04T17:02:34;101026.22;;;20.76;49.66
61554;BME280;47425;51.976;5.326;2022-11-04T17:05:07;101037.53;;;20.80;49.90
61554;BME280;47425;51.976;5.326;2022-11-04T17:07:36;101044.75;;;20.78;49.73
61554;BME280;47425;51.976;5.326;2022-11-04T17:10:04;101040.28;;;20.78;49.83
61554;BME280;47425;51.976;5.326;2022-11-04T17:12:36;101046.38;;;20.81;49.42
61554;BME280;47425;51.976;5.326;2022-11-04T17:15:02;101058.16;;;20.76;49.57
61554;BME280;47425;51.976;5.326;2022-11-04T17:17:27;101059.09;;;20.75;49.22
61554;BME280;47425;51.976;5.326;2022-11-04T17:19:53;101056.63;;;20.72;49.22
61554;BME280;47425;51.976;5.326;2022-11-04T17:22:38;101063.00;;;20.70;49.33
61554;BME280;47425;51.976;5.326;2022-11-04T17:25:13;101064.94;;;20.66;49.21
61554;BME280;47425;51.976;5.326;2022-11-04T17:27:39;101066.84;;;20.64;49.59
61554;BME280;47425;51.976;5.326;2022-11-04T17:30:06;101066.84;;;20.64;49.06
61554;BME280;47425;51.976;5.326;2022-11-04T17:32:32;101079.28;;;20.63;49.22
61554;BME280;47425;51.976;5.326;2022-11-04T17:34:58;101083.84;;;20.61;49.56
61554;BME280;47425;51.976;5.326;2022-11-04T17:37:23;101075.19;;;20.58;49.38
61554;BME280;47425;51.976;5.326;2022-11-04T17:39:50;101079.72;;;20.56;49.78
61554;BME280;47425;51.976;5.326;2022-11-04T17:42:15;101085.00;;;20.57;49.47
61554;BME280;47425;51.976;5.326;2022-11-04T17:44:59;101086.78;;;20.57;49.53
61554;BME280;47425;51.976;5.326;2022-11-04T17:47:25;101086.03;;;20.55;49.52
61554;BME280;47425;51.976;5.326;2022-11-04T17:49:50;101093.91;;;20.56;49.20
61554;BME280;47425;51.976;5.326;2022-11-04T17:52:15;101098.44;;;20.54;49.21
61554;BME280;47425;51.976;5.326;2022-11-04T17:54:41;101095.88;;;20.53;49.23
61554;BME280;47425;51.976;5.326;2022-11-04T17:57:07;101099.31;;;20.55;49.00
61554;BME280;47425;51.976;5.326;2022-11-04T17:59:33;101106.09;;;20.60;49.09
61554;BME280;47425;51.976;5.326;2022-11-04T18:01:58;101110.38;;;20.63;48.75
61554;BME280;47425;51.976;5.326;2022-11-04T18:04:25;101111.13;;;20.65;48.82
61554;BME280;47425;51.976;5.326;2022-11-04T18:06:50;101113.63;;;20.68;49.37
61554;BME280;47425;51.976;5.326;2022-11-04T18:09:16;101111.75;;;20.70;49.13
61554;BME280;47425;51.976;5.326;2022-11-04T18:11:43;101116.97;;;20.72;48.90
61554;BME280;47425;51.976;5.326;2022-11-04T18:14:48;101115.94;;;20.74;48.57
61554;BME280;47425;51.976;5.326;2022-11-04T18:17:14;101123.16;;;20.72;49.02
61554;BME280;47425;51.976;5.326;2022-11-04T18:19:39;101133.72;;;20.74;48.71
61554;BME280;47425;51.976;5.326;2022-11-04T18:22:05;101120.50;;;20.72;48.85
61554;BME280;47425;51.976;5.326;2022-11-04T18:24:30;101121.34;;;20.73;48.88
61554;BME280;47425;51.976;5.326;2022-11-04T18:26:56;101131.81;;;20.76;48.74
61554;BME280;47425;51.976;5.326;2022-11-04T18:29:23;101122.13;;;20.75;48.94
61554;BME280;47425;51.976;5.326;2022-11-04T18:31:49;101130.03;;;20.76;49.23
61554;BME280;47425;51.976;5.326;2022-11-04T18:34:16;101137.06;;;20.77;48.80
61554;BME280;47425;51.976;5.326;2022-11-04T18:36:43;101134.41;;;20.77;49.00
61554;BME280;47425;51.976;5.326;2022-11-04T18:39:12;101136.47;;;20.72;49.04
61554;BME280;47425;51.976;5.326;2022-11-04T18:41:40;101138.25;;;20.72;49.05
61554;BME280;47425;51.976;5.326;2022-11-04T18:44:07;101148.06;;;20.71;48.83
61554;BME280;47425;51.976;5.326;2022-11-04T18:46:32;101152.59;;;20.69;48.52
61554;BME280;47425;51.976;5.326;2022-11-04T18:48:59;101154.56;;;20.66;48.69
61554;BME280;47425;51.976;5.326;2022-11-04T18:51:24;101150.94;;;20.67;48.76
61554;BME280;47425;51.976;5.326;2022-11-04T18:53:50;101152.00;;;20.64;48.99
61554;BME280;47425;51.976;5.326;2022-11-04T18:56:20;101148.56;;;20.62;48.79
61554;BME280;47425;51.976;5.326;2022-11-04T18:58:48;101154.81;;;20.61;48.73
61554;BME280;47425;51.976;5.326;2022-11-04T19:01:20;101162.06;;;20.59;48.79
61554;BME280;47425;51.976;5.326;2022-11-04T19:03:46;101161.19;;;20.58;48.93
61554;BME280;47425;51.976;5.326;2022-11-04T19:06:18;101170.97;;;20.58;49.20
61554;BME280;47425;51.976;5.326;2022-11-04T19:08:46;101172.84;;;20.56;48.49
61554;BME280;47425;51.976;5.326;2022-11-04T19:11:16;101177.31;;;20.55;48.50
61554;BME280;47425;51.976;5.326;2022-11-04T19:13:41;101181.81;;;20.55;48.95
61554;BME280;47425;51.976;5.326;2022-11-04T19:16:11;101176.56;;;20.53;48.83
61554;BME280;47425;51.976;5.326;2022-11-04T19:18:38;101184.56;;;20.53;49.12
61554;BME280;47425;51.976;5.326;2022-11-04T19:21:06;101188.16;;;20.52;49.04
61554;BME280;47425;51.976;5.326;2022-11-04T19:23:32;101187.38;;;20.50;48.57
61554;BME280;47425;51.976;5.326;2022-11-04T19:26:07;101182.22;;;20.47;48.77
61554;BME280;47425;51.976;5.326;2022-11-04T19:28:39;101186.72;;;20.47;48.61
61554;BME280;47425;51.976;5.326;2022-11-04T19:31:26;101191.06;;;20.48;49.07
61554;BME280;47425;51.976;5.326;2022-11-04T19:33:53;101194.69;;;20.47;48.55
61554;BME280;47425;51.976;5.326;2022-11-04T19:36:21;101196.56;;;20.44;48.89
61554;BME280;47425;51.976;5.326;2022-11-04T19:38:47;101191.25;;;20.44;49.12
61554;BME280;47425;51.976;5.326;2022-11-04T19:41:14;101195.78;;;20.42;49.10
61554;BME280;47425;51.976;5.326;2022-11-04T19:44:04;101193.38;;;20.38;49.03
61554;BME280;47425;51.976;5.326;2022-11-04T19:46:32;101210.13;;;20.40;48.84
61554;BME280;47425;51.976;5.326;2022-11-04T19:48:58;101212.00;;;20.38;49.04
61554;BME280;47425;51.976;5.326;2022-11-04T19:51:24;101218.19;;;20.38;48.78
61554;BME280;47425;51.976;5.326;2022-11-04T19:53:52;101215.50;;;20.38;48.90
61554;BME280;47425;51.976;5.326;2022-11-04T19:56:18;101225.41;;;20.36;49.03
61554;BME280;47425;51.976;5.326;2022-11-04T19:58:46;101219.56;;;20.45;48.55
61554;BME280;47425;51.976;5.326;2022-11-04T20:01:13;101212.84;;;20.38;48.89
61554;BME280;47425;51.976;5.326;2022-11-04T20:03:40;101211.22;;;20.36;48.73
61554;BME280;47425;51.976;5.326;2022-11-04T20:06:07;101220.16;;;20.35;49.09
61554;BME280;47425;51.976;5.326;2022-11-04T20:08:36;101209.78;;;20.30;49.20
61554;BME280;47425;51.976;5.326;2022-11-04T20:11:05;101221.19;;;20.32;48.61
61554;BME280;47425;51.976;5.326;2022-11-04T20:13:31;101223.06;;;20.30;48.90
61554;BME280;47425;51.976;5.326;2022-11-04T20:18:54;101227.53;;;20.29;49.07
61554;BME280;47425;51.976;5.326;2022-11-04T20:21:28;101234.59;;;20.31;49.25
61554;BME280;47425;51.976;5.326;2022-11-04T20:23:58;101237.25;;;20.31;48.95
61554;BME280;47425;51.976;5.326;2022-11-04T20:26:26;101239.91;;;20.31;48.75
61554;BME280;47425;51.976;5.326;2022-11-04T20:28:53;101247.78;;;20.32;48.95
61554;BME280;47425;51.976;5.326;2022-11-04T20:31:21;101253.13;;;20.32;48.64
61554;BME280;47425;51.976;5.326;2022-11-04T20:33:48;101255.69;;;20.34;48.65
61554;BME280;47425;51.976;5.326;2022-11-04T20:36:14;101255.78;;;20.32;48.97
61554;BME280;47425;51.976;5.326;2022-11-04T20:38:42;101254.91;;;20.32;48.67
61554;BME280;47425;51.976;5.326;2022-11-04T20:41:10;101264.59;;;20.33;48.95
61554;BME280;47425;51.976;5.326;2022-11-04T20:43:40;101275.16;;;20.34;48.85
61554;BME280;47425;51.976;5.326;2022-11-04T20:46:08;101270.84;;;20.32;48.58
61554;BME280;47425;51.976;5.326;2022-11-04T20:48:36;101269.31;;;20.27;48.88
61554;BME280;47425;51.976;5.326;2022-11-04T20:51:21;101277.19;;;20.29;48.62
61554;BME280;47425;51.976;5.326;2022-11-04T20:53:48;101283.41;;;20.29;48.78
61554;BME280;47425;51.976;5.326;2022-11-04T20:56:16;101292.22;;;20.30;48.72
61554;BME280;47425;51.976;5.326;2022-11-04T20:58:43;101293.00;;;20.32;48.47
61554;BME280;47425;51.976;5.326;2022-11-04T21:01:15;101301.06;;;20.31;48.78
61554;BME280;47425;51.976;5.326;2022-11-04T21:03:41;101301.94;;;20.31;48.76
61554;BME280;47425;51.976;5.326;2022-11-04T21:06:09;101305.59;;;20.28;49.05
61554;BME280;47425;51.976;5.326;2022-11-04T21:08:35;101309.06;;;20.31;49.18
61554;BME280;47425;51.976;5.326;2022-11-04T21:11:05;101313.50;;;20.30;48.64
61554;BME280;47425;51.976;5.326;2022-11-04T21:13:31;101310.00;;;20.29;49.02
61554;BME280;47425;51.976;5.326;2022-11-04T21:16:02;101311.84;;;20.27;49.08
61554;BME280;47425;51.976;5.326;2022-11-04T21:18:27;101312.81;;;20.26;48.88
61554;BME280;47425;51.976;5.326;2022-11-04T21:20:53;101323.38;;;20.28;48.97
61554;BME280;47425;51.976;5.326;2022-11-04T21:23:20;101335.03;;;20.25;48.47
61554;BME280;47425;51.976;5.326;2022-11-04T21:25:55;101330.56;;;20.26;48.70
61554;BME280;47425;51.976;5.326;2022-11-04T21:28:23;101328.84;;;20.25;48.80
61554;BME280;47425;51.976;5.326;2022-11-04T21:30:50;101335.78;;;20.27;48.49
61554;BME280;47425;51.976;5.326;2022-11-04T21:33:17;101333.06;;;20.29;48.92
61554;BME280;47425;51.976;5.326;2022-11-04T21:35:43;101337.53;;;20.28;48.92
61554;BME280;47425;51.976;5.326;2022-11-04T21:38:16;101338.53;;;20.26;48.99
61554;BME280;47425;51.976;5.326;2022-11-04T21:40:43;101341.91;;;20.29;48.38
61554;BME280;47425;51.976;5.326;2022-11-04T21:43:10;101343.69;;;20.29;48.57
61554;BME280;47425;51.976;5.326;2022-11-04T21:45:35;101346.34;;;20.29;48.68
61554;BME280;47425;51.976;5.326;2022-11-04T21:48:01;101348.16;;;20.28;48.73
61554;BME280;47425;51.976;5.326;2022-11-04T21:50:28;101349.88;;;20.29;48.41
61554;BME280;47425;51.976;5.326;2022-11-04T21:52:53;101359.66;;;20.29;48.43
61554;BME280;47425;51.976;5.326;2022-11-04T21:55:19;101347.41;;;20.26;48.67
61554;BME280;47425;51.976;5.326;2022-11-04T21:57:45;101354.41;;;20.27;48.76
61554;BME280;47425;51.976;5.326;2022-11-04T22:00:12;101373.03;;;20.27;48.86
61554;BME280;47425;51.976;5.326;2022-11-04T22:02:39;101373.19;;;20.24;48.51
61554;BME280;47425;51.976;5.326;2022-11-04T22:05:12;101388.31;;;20.24;48.49
61554;BME280;47425;51.976;5.326;2022-11-04T22:07:39;101392.66;;;20.25;48.83
61554;BME280;47425;51.976;5.326;2022-11-04T22:10:25;101395.28;;;20.26;48.71
61554;BME280;47425;51.976;5.326;2022-11-04T22:12:51;101390.88;;;20.25;48.75
61554;BME280;47425;51.976;5.326;2022-11-04T22:15:17;101394.47;;;20.24;48.62
61554;BME280;47425;51.976;5.326;2022-11-04T22:18:05;101396.03;;;20.28;48.43
61554;BME280;47425;51.976;5.326;2022-11-04T22:20:31;101374.13;;;20.23;48.67
61554;BME280;47425;51.976;5.326;2022-11-04T22:22:56;101390.00;;;20.25;48.31
61554;BME280;47425;51.976;5.326;2022-11-04T22:25:22;101387.34;;;20.25;48.19
61554;BME280;47425;51.976;5.326;2022-11-04T22:27:49;101384.69;;;20.25;48.32
